Time;durP1;ratioP1;P1;durP2;ratioP2;P2;SDS_P1;SDS_P2;PMS_P1;PMS_P2;Temp;Humidity;BMP_temperature;BMP_pressure;BME280_temperature;BME280_humidity;BME280_pressure;Samples;Min_cycle;Max_cycle;Signal;HPM_P1;HPM_P2
2022/02/25 00:00:44;;;;;;;4.78;1.17;;;2.70;99.90;;;;;;5046775;28;20544;-75
2022/02/25 00:03:09;;;;;;;4.60;1.08;;;2.80;99.90;;;;;;5029520;28;20041;-74
2022/02/25 00:05:35;;;;;;;1.30;0.75;;;2.80;99.90;;;;;;5046990;28;20029;-74
2022/02/25 00:08:01;;;;;;;1.40;0.70;;;2.80;99.90;;;;;;5047163;28;20053;-75
2022/02/25 00:10:27;;;;;;;7.43;1.15;;;2.80;99.90;;;;;;5047294;28;20026;-76
2022/02/25 00:12:53;;;;;;;1.65;0.60;;;2.80;99.90;;;;;;5029313;28;20060;-75
2022/02/25 00:15:19;;;;;;;2.00;0.93;;;2.80;99.90;;;;;;5046848;28;20029;-75
2022/02/25 00:17:45;;;;;;;5.28;0.88;;;2.70;99.90;;;;;;5047138;28;20061;-74
2022/02/25 00:20:12;;;;;;;2.58;0.98;;;2.70;99.90;;;;;;5046573;28;20032;-77
2022/02/25 00:22:38;;;;;;;7.65;0.85;;;2.80;99.90;;;;;;5046919;28;20080;-74
2022/02/25 00:25:06;;;;;;;11.80;1.05;;;2.80;99.90;;;;;;5046849;28;20037;-75
2022/02/25 00:27:33;;;;;;;1.25;0.73;;;2.80;99.90;;;;;;5046611;28;20092;-77
2022/02/25 00:30:00;;;;;;;13.98;2.92;;;2.80;99.90;;;;;;5045463;28;20034;-76
2022/02/25 00:32:25;;;;;;;4.80;1.25;;;2.80;99.90;;;;;;5029170;28;20029;-75
2022/02/25 00:34:51;;;;;;;1.25;0.63;;;2.80;99.90;;;;;;5046390;28;20053;-75
2022/02/25 00:37:17;;;;;;;7.93;2.25;;;2.80;99.90;;;;;;5046575;28;20498;-76
2022/02/25 00:39:42;;;;;;;3.05;1.00;;;2.80;99.90;;;;;;5046643;28;20045;-75
2022/02/25 00:42:10;;;;;;;0.82;0.47;;;2.80;99.90;;;;;;5046229;28;20036;-72
2022/02/25 00:44:37;;;;;;;4.22;1.23;;;2.80;99.90;;;;;;5045558;28;20033;-74
2022/02/25 00:47:03;;;;;;;7.80;0.77;;;2.80;99.90;;;;;;5028517;28;20049;-74
2022/02/25 00:49:29;;;;;;;5.55;0.98;;;2.70;99.90;;;;;;5046121;28;20025;-74
2022/02/25 00:51:55;;;;;;;3.38;1.35;;;2.70;99.90;;;;;;5046764;28;20025;-74
2022/02/25 00:54:21;;;;;;;5.40;1.05;;;2.70;99.90;;;;;;5028518;28;20497;-75
2022/02/25 00:56:46;;;;;;;1.08;0.70;;;2.70;99.90;;;;;;5046141;28;20044;-77
2022/02/25 00:59:12;;;;;;;1.08;0.85;;;2.70;99.90;;;;;;5027685;28;20076;-72
2022/02/25 01:01:38;;;;;;;5.05;1.73;;;2.70;99.90;;;;;;5027419;28;20091;-76
2022/02/25 01:04:04;;;;;;;9.50;1.17;;;2.70;99.90;;;;;;5045717;28;20481;-77
2022/02/25 01:06:30;;;;;;;8.90;1.73;;;2.70;99.90;;;;;;5028365;28;20044;-77
2022/02/25 01:08:56;;;;;;;4.35;1.35;;;2.70;99.90;;;;;;5045321;28;20041;-76
2022/02/25 01:11:21;;;;;;;10.00;1.70;;;2.70;99.90;;;;;;5027533;28;20033;-76
2022/02/25 01:13:47;;;;;;;1.50;0.75;;;2.60;99.90;;;;;;5046025;28;20117;-76
2022/02/25 01:16:13;;;;;;;2.28;0.93;;;2.60;99.90;;;;;;5045800;28;20458;-75
2022/02/25 01:18:39;;;;;;;6.28;1.23;;;2.60;99.90;;;;;;5045643;28;20021;-74
2022/02/25 01:21:06;;;;;;;2.33;1.38;;;2.60;99.90;;;;;;5045954;28;20025;-75
2022/02/25 01:23:34;;;;;;;2.30;0.85;;;2.70;99.90;;;;;;5045407;28;20120;-75
2022/02/25 01:26:00;;;;;;;5.47;0.98;;;2.70;99.90;;;;;;5045414;28;20029;-77
2022/02/25 01:28:27;;;;;;;8.32;1.08;;;2.70;99.90;;;;;;5046198;28;20025;-74
2022/02/25 01:30:53;;;;;;;2.80;0.77;;;2.80;99.90;;;;;;5045788;28;20485;-75
2022/02/25 01:33:18;;;;;;;4.50;1.00;;;2.70;99.90;;;;;;5045531;28;20055;-77
2022/02/25 01:35:44;;;;;;;3.70;1.70;;;2.70;99.90;;;;;;5027765;28;20873;-72
2022/02/25 01:38:13;;;;;;;1.52;0.80;;;2.70;99.90;;;;;;5027334;28;20029;-75
2022/02/25 01:40:38;;;;;;;6.18;1.77;;;2.70;99.90;;;;;;5027516;28;20029;-74
2022/02/25 01:43:04;;;;;;;5.82;0.90;;;2.70;99.90;;;;;;5045475;28;20033;-73
2022/02/25 01:45:35;;;;;;;4.95;1.35;;;2.70;99.90;;;;;;5044934;28;20025;-76
2022/02/25 01:48:02;;;;;;;2.60;1.52;;;2.70;99.90;;;;;;5045412;28;20026;-74
2022/02/25 01:50:28;;;;;;;2.88;1.77;;;2.70;99.90;;;;;;5045293;28;20040;-76
2022/02/25 01:53:00;;;;;;;7.18;0.50;;;2.70;99.90;;;;;;5044637;28;20041;-75
2022/02/25 01:55:27;;;;;;;7.32;1.10;;;2.70;99.90;;;;;;5027695;28;20044;-75
2022/02/25 01:57:52;;;;;;;1.85;1.25;;;2.70;99.90;;;;;;5045242;28;20029;-75
2022/02/25 02:00:18;;;;;;;7.10;1.35;;;2.70;99.90;;;;;;5044628;28;20052;-74
2022/02/25 02:02:44;;;;;;;1.90;1.13;;;2.70;99.90;;;;;;5045167;28;20045;-75
2022/02/25 02:05:09;;;;;;;7.78;1.92;;;2.70;99.90;;;;;;5044892;28;20085;-73
2022/02/25 02:07:35;;;;;;;1.05;0.55;;;2.80;99.90;;;;;;5027105;28;20033;-73
2022/02/25 02:10:01;;;;;;;3.15;0.98;;;2.80;99.90;;;;;;5045253;28;20045;-73
2022/02/25 02:12:27;;;;;;;2.95;1.40;;;2.80;99.90;;;;;;5042649;28;20025;-73
2022/02/25 02:14:56;;;;;;;7.80;0.70;;;2.80;99.90;;;;;;5023542;28;20124;-75
2022/02/25 02:17:22;;;;;;;3.15;1.10;;;2.80;99.90;;;;;;5036780;28;20022;-75
2022/02/25 02:19:48;;;;;;;8.13;1.58;;;2.90;99.90;;;;;;5024917;28;20081;-75
2022/02/25 02:22:14;;;;;;;17.85;1.83;;;2.90;99.90;;;;;;5026458;28;20034;-74
2022/02/25 02:24:40;;;;;;;2.92;1.00;;;2.90;99.90;;;;;;5044735;28;20055;-75
2022/02/25 02:27:06;;;;;;;2.63;0.98;;;2.90;99.90;;;;;;5044679;28;20088;-75
2022/02/25 02:29:32;;;;;;;0.70;0.30;;;2.90;99.90;;;;;;5039886;28;20033;-77
2022/02/25 02:31:57;;;;;;;7.75;1.02;;;2.90;99.90;;;;;;5024918;28;20029;-78
2022/02/25 02:34:23;;;;;;;4.82;1.05;;;2.90;99.90;;;;;;5023376;28;20041;-76
2022/02/25 02:36:49;;;;;;;1.83;0.73;;;2.90;99.90;;;;;;5024615;28;20037;-75
2022/02/25 02:39:16;;;;;;;14.32;1.65;;;2.90;99.90;;;;;;5023576;28;20079;-74
2022/02/25 02:41:42;;;;;;;8.10;0.77;;;2.90;99.90;;;;;;5024614;28;20022;-75
2022/02/25 02:44:08;;;;;;;10.27;1.35;;;2.90;99.90;;;;;;5024530;28;20109;-73
2022/02/25 02:46:34;;;;;;;3.22;1.33;;;3.00;99.90;;;;;;5006714;28;20026;-75
2022/02/25 02:49:02;;;;;;;12.35;1.23;;;2.90;99.90;;;;;;5024239;28;20034;-76
2022/02/25 02:51:42;;;;;;;4.93;1.17;;;2.90;99.90;;;;;;5024934;28;20100;-75
2022/02/25 02:54:08;;;;;;;6.10;1.52;;;2.90;99.90;;;;;;5023039;28;20061;-74
2022/02/25 02:56:34;;;;;;;5.57;1.23;;;2.90;99.90;;;;;;5023025;28;20482;-73
2022/02/25 02:59:01;;;;;;;4.45;1.45;;;2.90;99.90;;;;;;5003515;28;20046;-76
2022/02/25 03:01:35;;;;;;;8.93;1.13;;;2.80;99.90;;;;;;5019527;28;20042;-77
2022/02/25 03:04:01;;;;;;;5.25;0.90;;;2.80;99.90;;;;;;5024552;28;20029;-76
2022/02/25 03:06:28;;;;;;;3.90;1.45;;;2.80;99.90;;;;;;5023320;28;20101;-75
2022/02/25 03:08:54;;;;;;;1.92;1.08;;;2.80;99.90;;;;;;5024272;28;20030;-75
2022/02/25 03:11:21;;;;;;;10.35;1.30;;;2.80;99.90;;;;;;5023018;28;20446;-74
2022/02/25 03:13:48;;;;;;;1.45;0.68;;;2.70;99.90;;;;;;5022765;28;20151;-73
2022/02/25 03:16:14;;;;;;;8.93;1.45;;;2.70;99.90;;;;;;5005628;28;20036;-73
2022/02/25 03:18:43;;;;;;;2.70;0.98;;;2.70;99.90;;;;;;5023794;28;20029;-73
2022/02/25 03:21:10;;;;;;;3.40;0.75;;;2.70;99.90;;;;;;5024231;28;20037;-73
2022/02/25 03:23:36;;;;;;;4.13;0.63;;;2.80;99.90;;;;;;5025884;28;20037;-73
2022/02/25 03:26:03;;;;;;;1.60;0.68;;;2.80;99.90;;;;;;5028244;28;20026;-72
2022/02/25 03:28:29;;;;;;;1.50;0.70;;;2.80;99.90;;;;;;5028229;28;20026;-74
2022/02/25 03:30:55;;;;;;;5.85;1.02;;;2.90;99.90;;;;;;5026301;28;20033;-72
2022/02/25 03:33:21;;;;;;;6.00;1.13;;;2.90;99.90;;;;;;5028401;28;20375;-75
2022/02/25 03:35:47;;;;;;;10.20;1.17;;;3.00;99.90;;;;;;5027709;28;20042;-75
2022/02/25 03:38:12;;;;;;;1.88;0.77;;;3.00;99.90;;;;;;5027628;28;20026;-73
2022/02/25 03:40:44;;;;;;;5.63;2.03;;;3.00;99.90;;;;;;5028063;28;20111;-76
2022/02/25 03:43:10;;;;;;;8.63;0.45;;;3.00;99.90;;;;;;5027870;28;20018;-74
2022/02/25 03:45:36;;;;;;;9.18;1.27;;;3.00;99.90;;;;;;5027374;28;20060;-74
2022/02/25 03:48:02;;;;;;;3.38;1.38;;;3.00;99.90;;;;;;5010055;28;20029;-75
2022/02/25 03:50:28;;;;;;;2.50;0.75;;;3.00;99.90;;;;;;5027332;28;20026;-72
2022/02/25 03:52:53;;;;;;;4.72;1.20;;;3.10;99.90;;;;;;5027734;28;20026;-73
2022/02/25 03:55:19;;;;;;;6.55;0.73;;;3.10;99.90;;;;;;5026211;28;20034;-73
2022/02/25 03:57:44;;;;;;;7.05;1.27;;;3.00;99.90;;;;;;5026956;28;20529;-74
2022/02/25 04:00:14;;;;;;;8.75;1.10;;;3.10;99.90;;;;;;5042141;28;20041;-73
2022/02/25 04:02:40;;;;;;;2.53;0.57;;;3.10;99.90;;;;;;5047191;28;20029;-74
2022/02/25 04:05:06;;;;;;;0.98;0.80;;;3.20;99.90;;;;;;5029143;28;20021;-74
2022/02/25 04:07:33;;;;;;;2.38;1.13;;;3.20;99.90;;;;;;5029538;28;20029;-74
2022/02/25 04:09:59;;;;;;;2.42;0.80;;;3.20;99.90;;;;;;5047142;28;20048;-75
2022/02/25 04:12:24;;;;;;;3.10;1.00;;;3.20;99.90;;;;;;5047098;28;20054;-73
2022/02/25 04:14:50;;;;;;;0.50;0.50;;;3.30;99.90;;;;;;5029266;28;20041;-73
2022/02/25 04:17:18;;;;;;;4.45;1.30;;;3.20;99.90;;;;;;5046566;28;20075;-74
2022/02/25 04:19:45;;;;;;;2.58;0.90;;;3.20;99.90;;;;;;5029040;28;20056;-74
2022/02/25 04:22:11;;;;;;;19.70;1.60;;;3.20;99.90;;;;;;5029295;28;20053;-75
2022/02/25 04:24:37;;;;;;;1.73;0.63;;;3.20;99.90;;;;;;5028689;28;20091;-72
2022/02/25 04:27:02;;;;;;;13.15;1.23;;;3.20;99.90;;;;;;5046774;28;20024;-74
2022/02/25 04:29:28;;;;;;;7.57;1.05;;;3.20;99.90;;;;;;5028497;28;20052;-74
2022/02/25 04:31:54;;;;;;;4.32;0.60;;;3.20;99.90;;;;;;5028809;28;20489;-74
2022/02/25 04:34:19;;;;;;;2.05;1.13;;;3.30;99.90;;;;;;5045628;28;20038;-74
2022/02/25 04:36:45;;;;;;;6.57;1.02;;;3.20;99.90;;;;;;5046644;28;20029;-74
2022/02/25 04:39:11;;;;;;;2.65;0.25;;;3.10;99.90;;;;;;5028703;28;20026;-73
2022/02/25 04:41:49;;;;;;;5.43;0.90;;;3.20;99.90;;;;;;5046503;28;20030;-75
2022/02/25 04:44:14;;;;;;;2.40;1.10;;;3.20;99.90;;;;;;5045904;28;20018;-73
2022/02/25 04:46:40;;;;;;;13.90;1.95;;;3.20;99.90;;;;;;5046113;28;20083;-74
2022/02/25 04:49:06;;;;;;;1.00;0.75;;;3.20;99.90;;;;;;5046381;28;20052;-72
2022/02/25 04:51:37;;;;;;;9.93;1.33;;;3.20;99.90;;;;;;5046662;28;20018;-73
2022/02/25 04:54:03;;;;;;;4.20;1.10;;;3.20;99.90;;;;;;5024673;28;20185;-74
2022/02/25 04:56:29;;;;;;;2.40;0.88;;;3.20;99.90;;;;;;5044578;28;20025;-74
2022/02/25 04:58:56;;;;;;;5.60;1.10;;;3.30;99.90;;;;;;5023932;28;20954;-72
2022/02/25 05:01:22;;;;;;;1.55;0.80;;;3.30;99.90;;;;;;5026193;28;20026;-74
2022/02/25 05:03:48;;;;;;;2.72;1.02;;;3.30;99.90;;;;;;5026240;28;20017;-73
2022/02/25 05:06:14;;;;;;;7.40;1.75;;;3.30;99.90;;;;;;5007694;28;20098;-72
2022/02/25 05:08:40;;;;;;;1.60;1.17;;;3.30;99.90;;;;;;5008157;28;20041;-74
2022/02/25 05:11:06;;;;;;;14.05;1.20;;;3.30;99.90;;;;;;5026132;28;20026;-72
2022/02/25 05:13:31;;;;;;;3.15;0.55;;;3.30;99.90;;;;;;5025999;28;20041;-75
2022/02/25 05:21:26;;;;;;;1.35;0.77;;;3.30;99.90;;;;;;5026009;28;20040;-75
2022/02/25 05:23:52;;;;;;;4.68;1.15;;;3.30;99.90;;;;;;5008446;28;20026;-73
2022/02/25 05:26:18;;;;;;;2.88;0.82;;;3.30;99.90;;;;;;5008396;28;20030;-75
2022/02/25 05:28:44;;;;;;;7.05;0.88;;;3.30;99.90;;;;;;5025368;28;20512;-73
2022/02/25 05:31:09;;;;;;;7.82;1.55;;;3.30;99.90;;;;;;5007911;28;20030;-74
2022/02/25 05:33:36;;;;;;;1.45;0.82;;;3.30;99.90;;;;;;5025741;28;20030;-73
2022/02/25 05:36:02;;;;;;;24.33;2.67;;;3.30;99.90;;;;;;5024899;28;20026;-77
2022/02/25 05:38:28;;;;;;;7.95;1.38;;;3.20;99.90;;;;;;5025397;28;20041;-74
2022/02/25 05:40:54;;;;;;;1.23;0.70;;;3.20;99.90;;;;;;5025937;28;21063;-73
2022/02/25 05:43:20;;;;;;;1.80;0.88;;;3.20;99.90;;;;;;5006894;28;20044;-76
2022/02/25 05:45:46;;;;;;;9.32;1.00;;;3.20;99.90;;;;;;5024848;28;20021;-73
2022/02/25 05:48:11;;;;;;;1.52;0.52;;;3.20;99.90;;;;;;5025296;28;20394;-73
2022/02/25 05:50:37;;;;;;;8.27;1.13;;;3.20;99.90;;;;;;5025945;28;20038;-74
2022/02/25 05:53:04;;;;;;;9.85;1.25;;;3.20;99.90;;;;;;5035966;28;20049;-74
2022/02/25 05:55:30;;;;;;;7.22;1.40;;;3.20;99.90;;;;;;5044884;28;20161;-75
2022/02/25 05:57:57;;;;;;;4.85;1.17;;;3.20;99.90;;;;;;5045056;28;20049;-76
2022/02/25 06:00:23;;;;;;;5.28;1.98;;;3.20;99.90;;;;;;5034097;28;20058;-74
2022/02/25 06:02:49;;;;;;;5.30;1.48;;;3.10;99.90;;;;;;5025464;28;20130;-73
2022/02/25 06:05:16;;;;;;;3.45;2.53;;;3.10;99.90;;;;;;5007301;28;20058;-72
2022/02/25 06:07:42;;;;;;;1.45;0.93;;;3.10;99.90;;;;;;5025491;28;20032;-74
2022/02/25 06:10:13;;;;;;;9.05;2.15;;;3.10;99.90;;;;;;5025195;28;20104;-73
2022/02/25 06:12:39;;;;;;;5.20;1.40;;;3.10;99.90;;;;;;5006015;28;20026;-73
2022/02/25 06:15:06;;;;;;;1.20;1.00;;;3.10;99.90;;;;;;5022395;28;20038;-73
2022/02/25 06:17:32;;;;;;;3.60;1.75;;;3.00;99.90;;;;;;5021327;28;20037;-75
2022/02/25 06:20:00;;;;;;;4.88;1.00;;;3.00;99.90;;;;;;5006567;28;20115;-75
2022/02/25 06:22:26;;;;;;;0.57;0.55;;;3.10;99.90;;;;;;5012464;28;20049;-74
2022/02/25 06:24:52;;;;;;;4.57;0.95;;;3.10;99.90;;;;;;5024010;28;20052;-75
2022/02/25 06:27:17;;;;;;;8.63;1.27;;;3.10;99.90;;;;;;5006326;28;20033;-75
2022/02/25 06:29:43;;;;;;;0.82;0.35;;;3.10;99.90;;;;;;5024351;28;20061;-74
2022/02/25 06:32:08;;;;;;;8.98;2.05;;;3.10;99.90;;;;;;5006440;28;20034;-74
2022/02/25 06:34:35;;;;;;;4.43;1.17;;;3.10;99.90;;;;;;5023487;28;20528;-76
2022/02/25 06:37:00;;;;;;;1.50;0.75;;;3.10;99.90;;;;;;5007287;28;20049;-75
2022/02/25 06:39:26;;;;;;;10.68;1.38;;;3.10;99.90;;;;;;5018052;28;20029;-75
2022/02/25 06:41:52;;;;;;;8.65;0.70;;;3.10;99.90;;;;;;5023064;28;20030;-75
2022/02/25 06:44:17;;;;;;;3.30;1.20;;;3.20;99.90;;;;;;5023952;28;20501;-75
2022/02/25 06:46:43;;;;;;;6.60;1.10;;;3.20;99.90;;;;;;5006332;28;20029;-74
2022/02/25 06:49:09;;;;;;;3.15;1.02;;;3.20;99.90;;;;;;5006561;28;20041;-75
2022/02/25 06:51:38;;;;;;;2.67;1.77;;;3.30;99.90;;;;;;5006872;28;20057;-75
2022/02/25 06:54:04;;;;;;;4.70;1.25;;;3.20;99.90;;;;;;5006508;28;20096;-77
2022/02/25 06:56:30;;;;;;;3.83;2.10;;;3.30;99.90;;;;;;5009669;28;20097;-74
2022/02/25 06:58:57;;;;;;;6.28;1.52;;;3.30;99.90;;;;;;5029808;28;20057;-76
2022/02/25 07:01:23;;;;;;;16.08;2.75;;;3.40;99.90;;;;;;5025046;28;20030;-77
2022/02/25 07:03:49;;;;;;;12.10;2.08;;;3.40;99.90;;;;;;5013765;28;20130;-75
2022/02/25 07:06:14;;;;;;;10.90;2.58;;;3.40;99.90;;;;;;5027158;28;20042;-77
2022/02/25 07:08:40;;;;;;;8.73;1.90;;;3.50;99.90;;;;;;5009082;28;20428;-76
2022/02/25 07:11:09;;;;;;;10.18;1.80;;;3.50;99.90;;;;;;5018328;28;20058;-75
2022/02/25 07:13:34;;;;;;;12.20;2.67;;;3.60;99.90;;;;;;5015746;28;20031;-74
2022/02/25 07:16:00;;;;;;;9.40;2.78;;;3.70;99.90;;;;;;5011677;28;20045;-73
2022/02/25 07:18:26;;;;;;;9.32;3.35;;;3.70;99.90;;;;;;5007110;28;20035;-72
2022/02/25 07:20:52;;;;;;;9.93;3.35;;;3.70;99.90;;;;;;5005702;28;20037;-72
2022/02/25 07:23:17;;;;;;;5.40;2.97;;;3.70;99.90;;;;;;5032623;28;20056;-73
2022/02/25 07:25:43;;;;;;;6.63;3.08;;;3.70;99.90;;;;;;5026052;28;20026;-75
2022/02/25 07:28:09;;;;;;;11.18;3.45;;;3.80;99.90;;;;;;5037701;28;20033;-73
2022/02/25 07:30:36;;;;;;;9.55;2.53;;;3.70;99.90;;;;;;5023395;28;20052;-74
2022/02/25 07:33:02;;;;;;;4.35;2.72;;;3.70;99.90;;;;;;5022367;28;20036;-75
2022/02/25 07:35:30;;;;;;;5.97;2.42;;;3.70;99.90;;;;;;5022984;28;20096;-74
2022/02/25 07:38:00;;;;;;;16.92;3.17;;;3.70;99.90;;;;;;5026619;28;20128;-72
2022/02/25 07:40:28;;;;;;;24.40;3.47;;;3.70;99.90;;;;;;5004219;28;20021;-73
2022/02/25 07:42:55;;;;;;;8.32;2.67;;;3.70;99.90;;;;;;5024037;28;20053;-74
2022/02/25 07:45:21;;;;;;;13.93;3.08;;;3.80;99.90;;;;;;5028394;28;20029;-74
2022/02/25 07:47:46;;;;;;;9.77;2.97;;;3.80;99.90;;;;;;5026564;28;20030;-72
2022/02/25 07:50:16;;;;;;;15.80;3.10;;;3.80;99.90;;;;;;5023402;28;20037;-75
2022/02/25 07:52:42;;;;;;;10.77;3.28;;;3.80;99.90;;;;;;5023830;28;20033;-74
2022/02/25 07:55:09;;;;;;;7.85;2.63;;;3.80;99.90;;;;;;5019293;28;20983;-72
2022/02/25 07:57:35;;;;;;;6.82;2.95;;;3.80;99.90;;;;;;5006606;28;20040;-74
2022/02/25 08:00:06;;;;;;;14.88;3.47;;;3.80;99.90;;;;;;5029975;28;20069;-75
2022/02/25 08:02:31;;;;;;;10.80;3.47;;;3.80;99.90;;;;;;5043301;28;20033;-75
2022/02/25 08:04:57;;;;;;;16.83;2.85;;;3.80;99.90;;;;;;5025124;28;20511;-76
2022/02/25 08:07:23;;;;;;;9.63;2.58;;;3.80;99.90;;;;;;5043622;28;20045;-74
2022/02/25 08:09:49;;;;;;;4.50;2.28;;;3.80;99.90;;;;;;5039565;28;20026;-75
2022/02/25 08:12:16;;;;;;;17.48;3.63;;;3.80;99.90;;;;;;5008861;28;20486;-75
2022/02/25 08:14:42;;;;;;;9.10;2.35;;;3.80;99.90;;;;;;5045331;28;20102;-76
2022/02/25 08:17:07;;;;;;;8.55;3.10;;;3.70;99.90;;;;;;5037806;28;20048;-76
2022/02/25 08:19:33;;;;;;;17.63;3.33;;;3.70;99.90;;;;;;5054844;28;20029;-75
2022/02/25 08:22:00;;;;;;;16.15;3.50;;;3.50;99.90;;;;;;5051987;28;20029;-74
2022/02/25 08:24:26;;;;;;;13.60;3.53;;;3.50;99.90;;;;;;5054630;28;20037;-74
2022/02/25 08:26:51;;;;;;;6.80;3.30;;;3.40;99.90;;;;;;5043436;28;20033;-75
2022/02/25 08:29:17;;;;;;;10.63;3.70;;;3.40;99.90;;;;;;5042948;28;20041;-74
2022/02/25 08:31:45;;;;;;;12.77;4.43;;;3.40;99.90;;;;;;5045362;28;20037;-74
2022/02/25 08:34:11;;;;;;;4.68;2.88;;;3.30;99.90;;;;;;5046586;28;20029;-73
2022/02/25 08:36:39;;;;;;;4.85;3.13;;;3.30;99.90;;;;;;5042332;28;20032;-74
2022/02/25 08:39:05;;;;;;;5.80;2.47;;;3.20;99.90;;;;;;5043995;28;20056;-72
2022/02/25 08:41:33;;;;;;;8.82;3.78;;;3.30;99.90;;;;;;5039749;28;20021;-75
2022/02/25 08:43:59;;;;;;;7.70;4.00;;;3.30;99.90;;;;;;5046024;28;20041;-77
2022/02/25 08:46:29;;;;;;;7.60;3.38;;;3.30;99.90;;;;;;5041504;28;20029;-73
2022/02/25 08:48:56;;;;;;;8.55;3.25;;;3.30;99.90;;;;;;5037145;28;20347;-75
2022/02/25 08:51:22;;;;;;;6.68;3.33;;;3.30;99.90;;;;;;5023696;28;20043;-75
2022/02/25 08:53:47;;;;;;;8.75;2.90;;;3.40;99.90;;;;;;5040084;28;20044;-75
2022/02/25 08:56:13;;;;;;;7.47;3.47;;;3.40;99.90;;;;;;5018361;28;20051;-74
2022/02/25 08:58:39;;;;;;;16.65;4.07;;;3.40;99.90;;;;;;5023349;28;20029;-75
2022/02/25 09:01:04;;;;;;;8.43;3.13;;;3.40;99.90;;;;;;5025361;28;20041;-78
2022/02/25 09:03:32;;;;;;;9.63;2.67;;;3.40;99.90;;;;;;5008248;28;20041;-76
2022/02/25 09:05:58;;;;;;;7.20;3.72;;;3.50;99.90;;;;;;5026183;28;20041;-76
2022/02/25 09:08:24;;;;;;;6.60;2.90;;;3.40;99.90;;;;;;5025652;28;20548;-75
2022/02/25 09:10:49;;;;;;;9.80;4.30;;;3.60;99.90;;;;;;5007552;28;20111;-77
2022/02/25 09:13:15;;;;;;;16.92;4.15;;;3.70;99.90;;;;;;5007559;28;20053;-75
2022/02/25 09:15:41;;;;;;;5.45;2.85;;;3.70;99.90;;;;;;5025300;28;20033;-72
2022/02/25 09:18:10;;;;;;;14.05;4.35;;;3.80;99.90;;;;;;5025397;28;20030;-76
2022/02/25 09:20:37;;;;;;;14.70;4.38;;;3.90;99.90;;;;;;5006049;28;20042;-73
2022/02/25 09:23:04;;;;;;;29.60;5.45;;;4.10;99.90;;;;;;5008287;28;20038;-73
2022/02/25 09:25:30;;;;;;;9.52;3.72;;;4.00;99.90;;;;;;5024970;28;20041;-77
2022/02/25 09:27:57;;;;;;;6.70;3.78;;;4.00;99.90;;;;;;5002651;28;20041;-76
2022/02/25 09:30:25;;;;;;;8.30;3.35;;;4.10;99.90;;;;;;5020447;28;20022;-77
2022/02/25 09:32:52;;;;;;;9.43;3.30;;;4.20;99.90;;;;;;5006682;28;20041;-75
2022/02/25 09:35:17;;;;;;;18.70;4.45;;;4.20;99.90;;;;;;5007772;28;20064;-74
2022/02/25 09:37:43;;;;;;;15.65;4.13;;;4.40;99.90;;;;;;5025819;28;20529;-74
2022/02/25 09:40:12;;;;;;;12.25;2.50;;;4.30;99.90;;;;;;5025207;28;20108;-75
2022/02/25 09:42:39;;;;;;;12.63;3.30;;;4.50;99.90;;;;;;4998159;28;20045;-75
2022/02/25 09:45:08;;;;;;;7.30;3.13;;;4.50;99.90;;;;;;5000795;28;20030;-74
2022/02/25 09:47:45;;;;;;;14.18;3.30;;;4.60;99.90;;;;;;4997568;28;20029;-72
2022/02/25 09:50:16;;;;;;;4.72;2.17;;;4.70;99.90;;;;;;5024617;28;20029;-70
2022/02/25 09:52:43;;;;;;;6.65;1.85;;;5.00;99.90;;;;;;5026208;28;20033;-74
2022/02/25 09:55:19;;;;;;;9.27;3.05;;;5.20;99.90;;;;;;5004571;28;20045;-73
2022/02/25 09:57:51;;;;;;;9.30;2.75;;;5.20;99.90;;;;;;5024811;28;20026;-74
2022/02/25 10:00:20;;;;;;;7.05;2.55;;;5.40;99.90;;;;;;5041472;28;20087;-73
2022/02/25 10:02:50;;;;;;;14.70;3.90;;;5.60;99.90;;;;;;5040339;28;20041;-76
2022/02/25 10:05:20;;;;;;;10.48;2.95;;;5.70;99.90;;;;;;5044016;28;20099;-74
2022/02/25 10:07:52;;;;;;;10.95;2.40;;;5.80;99.90;;;;;;5042409;28;20524;-74
2022/02/25 10:10:26;;;;;;;7.50;2.25;;;5.90;99.90;;;;;;5043692;28;20069;-74
2022/02/25 10:13:03;;;;;;;7.65;1.73;;;5.90;99.90;;;;;;5044896;28;20082;-72
2022/02/25 10:15:35;;;;;;;6.63;2.58;;;5.90;99.90;;;;;;5024002;28;20045;-74
2022/02/25 10:18:12;;;;;;;5.68;1.35;;;5.80;99.90;;;;;;5032319;28;20034;-74
2022/02/25 10:20:42;;;;;;;4.30;1.52;;;5.70;99.90;;;;;;5036244;28;20049;-76
2022/02/25 10:23:39;;;;;;;2.83;1.50;;;5.70;99.90;;;;;;5022987;28;20026;-77
2022/02/25 10:26:19;;;;;;;7.28;2.50;;;5.90;99.90;;;;;;5036964;28;20033;-75
2022/02/25 10:31:39;;;;;;;22.17;2.03;;;6.10;99.90;;;;;;1480052;26;20128;-77
2022/02/25 10:34:14;;;;;;;;;;;6.30;99.90;;;;;;5036658;28;20052;-75
2022/02/25 10:36:53;;;;;;;7.65;1.77;;;6.40;99.90;;;;;;5029328;28;19921;-74
2022/02/25 10:39:29;;;;;;;2.40;1.33;;;6.40;99.90;;;;;;5043396;28;20024;-75
2022/02/25 10:42:02;;;;;;;3.75;1.50;;;6.10;99.90;;;;;;5030081;28;20033;-77
2022/02/25 10:44:57;;;;;;;2.40;0.40;;;5.60;99.90;;;;;;5048669;28;20027;-72
2022/02/25 10:47:30;;;;;;;0.50;0.20;;;4.90;99.90;;;;;;5035269;28;20042;-75
2022/02/25 10:50:05;;;;;;;3.60;0.80;;;4.60;99.90;;;;;;5032817;28;20032;-74
2022/02/25 10:52:36;;;;;;;1.65;0.68;;;4.40;99.90;;;;;;5036867;28;20037;-76
2022/02/25 10:55:04;;;;;;;0.77;0.28;;;4.20;99.90;;;;;;5025455;28;20052;-75
2022/02/25 10:57:36;;;;;;;1.20;0.22;;;4.10;99.90;;;;;;5044270;28;20404;-76
2022/02/25 11:00:08;;;;;;;6.50;0.85;;;4.00;99.90;;;;;;5037774;28;20060;-75
2022/02/25 11:02:40;;;;;;;0.43;0.20;;;3.90;99.90;;;;;;5039553;28;20029;-77
2022/02/25 11:05:26;;;;;;;1.70;0.70;;;3.90;99.90;;;;;;5030732;28;20615;-77
2022/02/25 11:07:54;;;;;;;0.57;0.40;;;3.90;99.90;;;;;;5059910;28;20029;-74
2022/02/25 11:10:23;;;;;;;2.25;0.32;;;3.90;99.90;;;;;;5064105;28;20024;-75
2022/02/25 11:12:51;;;;;;;1.08;0.65;;;4.00;99.90;;;;;;5063885;28;20045;-75
2022/02/25 11:15:25;;;;;;;1.17;0.80;;;4.10;99.90;;;;;;5064757;28;20063;-74
2022/02/25 11:17:52;;;;;;;2.53;1.15;;;4.30;99.90;;;;;;5046781;28;20552;-75
2022/02/25 11:20:22;;;;;;;0.93;0.57;;;4.40;99.90;;;;;;5041339;28;20026;-74
2022/02/25 11:22:52;;;;;;;6.63;1.27;;;4.70;99.90;;;;;;5040112;28;20035;-75
2022/02/25 11:25:19;;;;;;;6.32;1.33;;;4.70;99.90;;;;;;5041916;28;20018;-77
2022/02/25 11:27:46;;;;;;;1.85;0.82;;;4.80;99.90;;;;;;5043933;28;20049;-74
2022/02/25 11:30:35;;;;;;;1.23;0.70;;;4.80;99.90;;;;;;5050034;28;20570;-76
2022/02/25 11:33:10;;;;;;;1.08;0.45;;;4.90;99.90;;;;;;5030246;28;20049;-75
2022/02/25 11:35:47;;;;;;;2.05;0.82;;;5.00;99.90;;;;;;5050857;28;20068;-72
2022/02/25 11:38:12;;;;;;;4.03;1.13;;;5.10;99.90;;;;;;5046205;28;20029;-75
2022/02/25 11:40:58;;;;;;;1.20;0.50;;;5.30;99.90;;;;;;5041132;28;20033;-75
2022/02/25 11:43:42;;;;;;;1.73;0.47;;;5.70;99.90;;;;;;5044105;28;20026;-75
2022/02/25 11:46:32;;;;;;;4.07;0.52;;;6.10;99.90;;;;;;5022518;28;20041;-74
2022/02/25 11:49:20;;;;;;;5.07;0.52;;;6.70;99.90;;;;;;5032947;28;20045;-74
2022/02/25 11:51:51;;;;;;;2.45;0.77;;;7.10;99.90;;;;;;5046952;28;20389;-76
2022/02/25 11:54:27;;;;;;;3.47;1.10;;;7.70;99.90;;;;;;5045688;28;20041;-77
2022/02/25 11:56:56;;;;;;;3.65;0.93;;;8.10;99.90;;;;;;5029762;28;20026;-77
2022/02/25 11:59:31;;;;;;;5.20;0.95;;;8.60;99.90;;;;;;5029006;28;20032;-75
2022/02/25 12:02:03;;;;;;;1.17;0.73;;;8.90;99.90;;;;;;5053726;28;20029;-75
2022/02/25 12:04:32;;;;;;;7.75;0.90;;;9.20;99.90;;;;;;5037389;28;20034;-78
2022/02/25 12:07:13;;;;;;;3.97;1.17;;;9.40;99.90;;;;;;5041843;28;20029;-75
2022/02/25 12:09:54;;;;;;;1.95;0.70;;;9.30;99.90;;;;;;5037615;28;20564;-75
2022/02/25 12:12:22;;;;;;;6.32;0.88;;;9.00;99.90;;;;;;5041718;28;20476;-76
2022/02/25 12:15:18;;;;;;;7.63;1.52;;;8.40;99.90;;;;;;5025631;28;20046;-78
2022/02/25 12:17:56;;;;;;;0.88;0.68;;;7.80;99.90;;;;;;5043064;28;20782;-76
2022/02/25 12:20:51;;;;;;;4.13;0.65;;;7.30;99.90;;;;;;5024355;28;20037;-76
2022/02/25 12:23:23;;;;;;;;;;;7.00;99.90;;;;;;5019777;28;20061;-76
2022/02/25 12:25:58;;;;;;;2.20;0.50;;;6.90;99.90;;;;;;5009755;28;19913;-75
2022/02/25 12:28:28;;;;;;;4.90;0.70;;;7.60;99.90;;;;;;5008723;28;20034;-75
2022/02/25 12:31:01;;;;;;;3.38;1.23;;;7.80;99.90;;;;;;5007525;28;20059;-77
2022/02/25 12:33:45;;;;;;;3.95;0.52;;;7.60;99.90;;;;;;5009004;28;20065;-74
2022/02/25 12:36:25;;;;;;;1.23;0.17;;;7.40;99.90;;;;;;5011005;28;20094;-74
2022/02/25 12:39:10;;;;;;;1.23;0.40;;;7.30;99.90;;;;;;5018268;28;20029;-78
2022/02/25 12:41:52;;;;;;;3.08;0.68;;;7.00;99.90;;;;;;5024241;28;20029;-75
2022/02/25 12:45:13;;;;;;;4.85;0.43;;;6.90;99.90;;;;;;5032782;28;20034;-76
2022/02/25 12:47:40;;;;;;;11.75;0.88;;;7.60;99.90;;;;;;5017790;28;20037;-75
2022/02/25 12:50:06;;;;;;;6.20;1.17;;;7.90;99.90;;;;;;5041220;28;20063;-77
2022/02/25 12:52:40;;;;;;;5.90;1.27;;;8.20;99.90;;;;;;5025166;28;20029;-77
2022/02/25 12:55:07;;;;;;;0.22;0.13;;;8.60;99.90;;;;;;5021857;28;20041;-76
2022/02/25 12:57:33;;;;;;;0.60;0.40;;;8.90;99.90;;;;;;5043460;28;20029;-74
2022/02/25 13:00:05;;;;;;;0.28;0.20;;;9.10;99.90;;;;;;5031008;28;20026;-77
2022/02/25 13:02:31;;;;;;;4.68;1.35;;;8.80;99.90;;;;;;5023411;28;20029;-75
2022/02/25 13:05:05;;;;;;;13.50;1.23;;;8.50;99.90;;;;;;5021300;28;20025;-74
2022/02/25 13:07:30;;;;;;;6.83;0.63;;;8.40;99.90;;;;;;5036936;28;20129;-74
2022/02/25 13:09:56;;;;;;;1.90;0.60;;;8.20;99.90;;;;;;5025358;28;20056;-76